Time;durP1;ratioP1;P1;durP2;ratioP2;P2;SDS_P1;SDS_P2;PMS_P1;PMS_P2;Temp;Humidity;BMP_temperature;BMP_pressure;BME280_temperature;BME280_humidity;BME280_pressure;Samples;Min_cycle;Max_cycle;Signal;HPM_P1;HPM_P2
2022/01/12 00:01:09;;;;;;;105.00;37.42;;;5.30;99.90;;;;;;5023227;28;20063;-62
2022/01/12 00:03:34;;;;;;;101.13;37.83;;;5.30;99.90;;;;;;5012384;28;20474;-61
2022/01/12 00:06:04;;;;;;;104.35;35.92;;;5.40;99.90;;;;;;5024194;28;20077;-61
2022/01/12 00:08:33;;;;;;;103.10;37.38;;;5.40;99.90;;;;;;5007358;28;20092;-61
2022/01/12 00:11:04;;;;;;;112.53;39.35;;;5.40;99.90;;;;;;5009455;28;20465;-61
2022/01/12 00:13:30;;;;;;;118.95;36.25;;;5.40;99.90;;;;;;5008519;28;20517;-62
2022/01/12 00:15:56;;;;;;;98.80;35.92;;;5.40;99.90;;;;;;5008452;28;20049;-62
2022/01/12 00:18:22;;;;;;;87.25;36.42;;;5.40;99.90;;;;;;5008117;28;20045;-61
2022/01/12 00:20:49;;;;;;;102.28;35.15;;;5.40;99.90;;;;;;5025858;28;20049;-61
2022/01/12 00:23:15;;;;;;;92.82;36.47;;;5.40;99.90;;;;;;5028228;28;20056;-62
2022/01/12 00:33:57;;;;;;;99.20;35.10;;;5.50;99.90;;;;;;5019298;28;20049;-61
2022/01/12 00:36:23;;;;;;;106.90;39.05;;;5.50;99.90;;;;;;5029289;28;20057;-61
2022/01/12 00:38:49;;;;;;;122.28;41.15;;;5.50;99.90;;;;;;5010389;28;20081;-62
2022/01/12 00:41:17;;;;;;;110.70;38.00;;;5.50;99.90;;;;;;4994406;28;20053;-61
2022/01/12 00:43:45;;;;;;;96.05;37.75;;;5.50;99.90;;;;;;5023064;28;20048;-61
2022/01/12 00:46:13;;;;;;;129.18;39.95;;;5.50;99.90;;;;;;5031127;28;20080;-61
2022/01/12 00:48:38;;;;;;;125.10;42.92;;;5.50;99.90;;;;;;5031898;28;20053;-62
2022/01/12 00:51:04;;;;;;;121.22;41.50;;;5.50;99.90;;;;;;5030478;28;20041;-62
2022/01/12 00:53:30;;;;;;;102.28;36.67;;;5.50;99.90;;;;;;5031130;28;20041;-62
2022/01/12 00:55:55;;;;;;;121.90;43.33;;;5.50;99.90;;;;;;5019613;28;20041;-62
2022/01/12 00:58:21;;;;;;;87.55;35.97;;;5.50;99.90;;;;;;5011446;28;20049;-61
2022/01/12 01:00:47;;;;;;;112.35;37.83;;;5.50;99.90;;;;;;5010945;28;20537;-61
2022/01/12 01:03:13;;;;;;;99.32;36.33;;;5.50;99.90;;;;;;4998967;28;20064;-61
2022/01/12 01:05:39;;;;;;;85.78;35.25;;;5.50;99.90;;;;;;5031434;28;20068;-61
2022/01/12 01:08:05;;;;;;;95.05;37.38;;;5.60;99.90;;;;;;5026493;28;20080;-62
2022/01/12 01:10:47;;;;;;;78.53;31.95;;;5.60;99.90;;;;;;5020612;28;20561;-62
2022/01/12 01:13:22;;;;;;;86.22;34.05;;;5.60;99.90;;;;;;5017524;28;20046;-62
2022/01/12 01:26:27;;;;;;;71.45;31.08;;;5.60;99.90;;;;;;5017680;28;20053;-61
2022/01/12 01:28:53;;;;;;;94.45;33.97;;;5.60;99.90;;;;;;5029824;28;20409;-62
2022/01/12 01:31:20;;;;;;;85.03;32.15;;;5.60;99.90;;;;;;5019356;28;20116;-61
2022/01/12 01:33:46;;;;;;;100.97;34.75;;;5.60;99.90;;;;;;5020457;28;20045;-62
2022/01/12 01:36:13;;;;;;;87.93;31.08;;;5.60;99.90;;;;;;5029053;28;20047;-62
2022/01/12 01:38:39;;;;;;;92.63;34.90;;;5.60;99.90;;;;;;5030995;28;20037;-61
2022/01/12 01:41:05;;;;;;;76.80;30.65;;;5.60;99.90;;;;;;5007730;28;20081;-61
2022/01/12 01:44:06;;;;;;;73.72;28.55;;;5.60;99.90;;;;;;5005861;28;20089;-62
2022/01/12 01:54:42;;;;;;;45.28;17.73;;;5.70;99.90;;;;;;5030889;28;20103;-62
2022/01/12 01:57:08;;;;;;;47.15;17.02;;;5.70;99.90;;;;;;5029564;28;20053;-61
2022/01/12 01:59:34;;;;;;;38.67;14.73;;;5.70;99.90;;;;;;5010214;28;20042;-61
2022/01/12 02:01:59;;;;;;;39.88;14.13;;;5.70;99.90;;;;;;5023799;28;20057;-61
2022/01/12 02:04:25;;;;;;;23.58;10.45;;;5.70;99.90;;;;;;5026026;28;20481;-61
2022/01/12 02:06:51;;;;;;;28.85;12.73;;;5.60;99.90;;;;;;5028764;28;20444;-62
2022/01/12 02:09:16;;;;;;;18.33;8.98;;;5.60;99.90;;;;;;5009412;28;20053;-62
2022/01/12 02:11:42;;;;;;;18.02;8.65;;;5.60;99.90;;;;;;5009566;28;20478;-61
2022/01/12 02:14:11;;;;;;;27.15;10.48;;;5.50;99.90;;;;;;5015548;28;20046;-61
2022/01/12 02:16:50;;;;;;;31.15;9.57;;;5.50;99.90;;;;;;5010610;28;20142;-62
2022/01/12 02:19:40;;;;;;;20.60;9.68;;;5.50;99.90;;;;;;5016041;28;20053;-62
2022/01/12 02:35:51;;;;;;;8.55;4.22;;;5.10;99.90;;;;;;5014833;28;20080;-61
2022/01/12 02:41:05;;;;;;;15.65;7.28;;;5.10;99.90;;;;;;5009701;28;20112;-61
2022/01/12 02:53:38;;;;;;;14.55;7.30;;;4.80;99.90;;;;;;5030002;28;20052;-61
2022/01/12 02:54:21;;;;;;;11.82;6.25;;;4.80;99.90;;;;;;5027684;28;20060;-61
2022/01/12 02:56:47;;;;;;;12.25;5.03;;;4.70;99.90;;;;;;5023441;28;20046;-61
2022/01/12 02:59:13;;;;;;;8.55;4.93;;;4.60;99.90;;;;;;5028416;28;20065;-61
2022/01/12 03:02:40;;;;;;;11.77;5.25;;;4.60;99.90;;;;;;5012380;28;20057;-61
2022/01/12 03:04:35;;;;;;;17.05;6.78;;;4.60;99.90;;;;;;4983618;28;20560;-61
2022/01/12 03:07:07;;;;;;;13.15;7.32;;;4.50;99.90;;;;;;5012517;28;20110;-61
2022/01/12 03:09:32;;;;;;;22.73;8.18;;;4.50;99.90;;;;;;5029150;28;20057;-61
2022/01/12 03:11:58;;;;;;;14.00;6.65;;;4.50;99.90;;;;;;5010682;28;20049;-61
2022/01/12 03:14:23;;;;;;;14.70;7.32;;;4.40;99.90;;;;;;5026835;28;20056;-61
2022/01/12 03:16:49;;;;;;;18.05;8.48;;;4.30;99.90;;;;;;5026585;28;20048;-61
2022/01/12 03:19:14;;;;;;;18.75;8.65;;;4.20;99.90;;;;;;5028946;28;20053;-61
2022/01/12 03:21:40;;;;;;;32.95;10.02;;;4.20;99.90;;;;;;5028405;28;20050;-61
2022/01/12 03:24:06;;;;;;;19.92;9.40;;;4.20;99.90;;;;;;5015413;28;20045;-61
2022/01/12 03:26:33;;;;;;;14.80;7.72;;;4.20;99.90;;;;;;5009206;28;20056;-61
2022/01/12 03:29:02;;;;;;;21.13;9.77;;;4.20;99.90;;;;;;5025967;28;20061;-61
2022/01/12 03:31:30;;;;;;;19.80;8.68;;;4.20;99.90;;;;;;5010588;28;20049;-61
2022/01/12 03:34:05;;;;;;;17.77;7.03;;;4.10;99.90;;;;;;5010981;28;20045;-61
2022/01/12 03:36:43;;;;;;;12.35;6.43;;;4.10;99.90;;;;;;5026523;28;20030;-61
2022/01/12 03:39:11;;;;;;;21.70;6.95;;;4.10;99.90;;;;;;5020638;28;20053;-60
2022/01/12 03:41:38;;;;;;;12.63;6.72;;;4.00;99.90;;;;;;5002604;28;20135;-61
2022/01/12 03:44:07;;;;;;;9.27;5.82;;;4.00;99.90;;;;;;5014554;28;20753;-61
2022/01/12 03:46:44;;;;;;;8.77;5.82;;;4.00;99.90;;;;;;5012078;28;20046;-61
2022/01/12 03:49:10;;;;;;;15.93;7.18;;;4.00;99.90;;;;;;5013396;28;20041;-61
2022/01/12 03:51:35;;;;;;;17.05;7.25;;;3.90;99.90;;;;;;5024477;28;20123;-61
2022/01/12 03:54:01;;;;;;;9.52;5.78;;;3.90;99.90;;;;;;5026445;28;20143;-61
2022/01/12 03:56:26;;;;;;;9.90;5.97;;;3.90;99.90;;;;;;5028048;28;20076;-61
2022/01/12 03:58:52;;;;;;;8.85;5.65;;;4.00;99.90;;;;;;5009154;28;20061;-61
2022/01/12 04:01:18;;;;;;;8.70;5.72;;;3.90;99.90;;;;;;5014397;28;20053;-61
2022/01/12 04:03:47;;;;;;;9.70;4.95;;;3.90;99.90;;;;;;5027767;28;20038;-61
2022/01/12 04:08:56;;;;;;;8.75;5.75;;;3.90;99.90;;;;;;5010839;28;20417;-61
2022/01/12 04:11:22;;;;;;;6.85;4.88;;;3.80;99.90;;;;;;5016983;28;20054;-61
2022/01/12 04:13:49;;;;;;;7.75;4.68;;;3.80;99.90;;;;;;5012621;28;20129;-61
2022/01/12 04:16:15;;;;;;;9.70;5.68;;;3.70;99.90;;;;;;5029749;28;20076;-61
2022/01/12 04:18:42;;;;;;;5.45;3.95;;;3.70;99.90;;;;;;5032005;28;20041;-61
2022/01/12 04:21:09;;;;;;;8.95;4.75;;;3.60;99.90;;;;;;5024362;28;20489;-61
2022/01/12 04:23:37;;;;;;;5.72;3.88;;;3.60;99.90;;;;;;5012444;28;20099;-60
2022/01/12 04:26:13;;;;;;;7.15;4.05;;;3.60;99.90;;;;;;5022012;28;20071;-61
2022/01/12 04:28:43;;;;;;;5.15;3.47;;;3.60;99.90;;;;;;5016981;28;20054;-60
2022/01/12 04:31:10;;;;;;;5.75;3.78;;;3.50;99.90;;;;;;5010638;28;20073;-61
2022/01/12 04:33:37;;;;;;;5.00;3.28;;;3.50;99.90;;;;;;5012126;28;20049;-61
2022/01/12 04:36:05;;;;;;;7.00;3.47;;;3.50;99.90;;;;;;5015387;28;20045;-61
2022/01/12 04:38:33;;;;;;;4.65;2.90;;;3.40;99.90;;;;;;5031360;28;20121;-60
2022/01/12 04:41:05;;;;;;;7.35;3.35;;;3.50;99.90;;;;;;5030016;28;20492;-61
2022/01/12 04:43:32;;;;;;;7.80;3.78;;;3.40;99.90;;;;;;5025697;28;20125;-61
2022/01/12 04:48:38;;;;;;;7.03;3.33;;;3.40;99.90;;;;;;5020532;28;20096;-60
2022/01/12 04:51:04;;;;;;;4.00;3.05;;;3.30;99.90;;;;;;5011236;28;20050;-60
2022/01/12 04:53:31;;;;;;;6.15;3.03;;;3.30;99.90;;;;;;4994019;28;20096;-61
2022/01/12 04:55:57;;;;;;;4.65;3.22;;;3.20;99.90;;;;;;5018352;28;20542;-61
2022/01/12 04:58:23;;;;;;;10.05;3.40;;;3.20;99.90;;;;;;5027364;28;20037;-61
2022/01/12 05:00:56;;;;;;;22.67;4.50;;;3.20;99.90;;;;;;5017720;28;20049;-60
2022/01/12 05:06:37;;;;;;;51.60;3.90;;;3.20;99.90;;;;;;5030863;28;20096;-61
2022/01/12 05:09:25;;;;;;;42.95;4.18;;;3.20;99.90;;;;;;5022823;28;20041;-61
2022/01/12 05:14:40;;;;;;;60.92;3.45;;;3.10;99.90;;;;;;5030985;28;20136;-61
2022/01/12 05:17:06;;;;;;;66.10;3.78;;;3.10;99.90;;;;;;5025418;28;20045;-61
2022/01/12 05:19:31;;;;;;;60.50;3.78;;;3.10;99.90;;;;;;5013100;28;20037;-60
2022/01/12 05:21:57;;;;;;;76.97;4.47;;;3.00;99.90;;;;;;5029953;28;20045;-61
2022/01/12 05:24:23;;;;;;;97.25;4.38;;;3.00;99.90;;;;;;5013841;28;20056;-61
2022/01/12 05:26:48;;;;;;;105.32;4.78;;;2.90;99.90;;;;;;5031055;28;20034;-61
2022/01/12 05:29:14;;;;;;;54.75;3.67;;;3.00;99.90;;;;;;5028730;28;20599;-60
2022/01/12 05:31:39;;;;;;;49.80;3.28;;;3.00;99.90;;;;;;5013949;28;20048;-61
2022/01/12 05:34:06;;;;;;;39.30;2.65;;;3.00;99.90;;;;;;5010353;28;20453;-60
2022/01/12 05:36:32;;;;;;;29.73;2.78;;;3.00;99.90;;;;;;5010155;28;20056;-61
2022/01/12 05:38:59;;;;;;;65.88;3.30;;;3.00;99.90;;;;;;5010510;28;20481;-61
2022/01/12 05:41:25;;;;;;;24.33;2.08;;;2.90;99.90;;;;;;5010448;28;20534;-61
2022/01/12 05:43:51;;;;;;;5.95;2.15;;;3.00;99.90;;;;;;5000264;28;20557;-61
2022/01/12 05:46:22;;;;;;;4.78;1.80;;;3.00;99.90;;;;;;5014428;28;20120;-61
2022/01/12 05:51:32;;;;;;;6.57;1.55;;;3.00;99.90;;;;;;5011310;28;20511;-60
2022/01/12 05:53:57;;;;;;;2.22;1.20;;;3.00;99.90;;;;;;5013739;28;20046;-61
2022/01/12 05:56:23;;;;;;;7.70;2.13;;;2.90;99.90;;;;;;5019522;28;20052;-61
2022/01/12 05:58:50;;;;;;;5.20;1.75;;;2.90;99.90;;;;;;5024045;28;20132;-61
2022/01/12 06:01:16;;;;;;;7.60;2.40;;;2.90;99.90;;;;;;5017417;28;20053;-61
2022/01/12 06:03:42;;;;;;;6.70;2.00;;;2.90;99.90;;;;;;5028776;28;20042;-61
2022/01/12 06:06:07;;;;;;;16.38;2.58;;;2.80;99.90;;;;;;5028247;28;20160;-61
2022/01/12 06:08:33;;;;;;;28.13;2.75;;;2.90;99.90;;;;;;5030614;28;20048;-61
2022/01/12 06:10:59;;;;;;;25.90;3.10;;;2.80;99.90;;;;;;5029329;28;20152;-61
2022/01/12 06:13:24;;;;;;;29.15;4.13;;;2.80;99.90;;;;;;5025253;28;20465;-61
2022/01/12 06:15:50;;;;;;;188.77;11.57;;;2.90;99.90;;;;;;5010265;28;20053;-61
2022/01/12 06:18:16;;;;;;;266.10;12.93;;;2.80;99.90;;;;;;5009788;28;20041;-61
2022/01/12 06:20:41;;;;;;;124.65;8.25;;;2.80;99.90;;;;;;5022781;28;20046;-61
2022/01/12 06:23:07;;;;;;;66.45;5.22;;;2.80;99.90;;;;;;5027517;28;20045;-61
2022/01/12 06:25:32;;;;;;;52.92;4.35;;;2.80;99.90;;;;;;5029774;28;20048;-61
2022/01/12 06:28:20;;;;;;;54.95;5.80;;;2.90;99.90;;;;;;5029543;28;20083;-61
2022/01/12 06:33:27;;;;;;;124.70;6.00;;;2.80;99.90;;;;;;5030143;28;20469;-61
2022/01/12 06:35:53;;;;;;;141.45;6.68;;;2.80;99.90;;;;;;5029157;28;20095;-61
2022/01/12 06:38:18;;;;;;;258.88;10.27;;;2.80;99.90;;;;;;5023231;28;20125;-61
2022/01/12 06:40:44;;;;;;;171.02;7.30;;;2.80;99.90;;;;;;5009903;28;20132;-61
2022/01/12 06:43:09;;;;;;;164.07;7.43;;;2.70;99.90;;;;;;5010166;28;20084;-61
2022/01/12 06:45:36;;;;;;;148.73;6.15;;;2.70;99.90;;;;;;5022165;28;20052;-61
2022/01/12 06:48:01;;;;;;;166.93;7.28;;;2.60;99.90;;;;;;5018076;28;20045;-61
2022/01/12 06:50:27;;;;;;;74.53;4.15;;;2.50;99.90;;;;;;5018176;28;20077;-61
2022/01/12 06:52:52;;;;;;;55.50;3.60;;;2.50;99.90;;;;;;5012011;28;20033;-61
2022/01/12 06:55:18;;;;;;;45.95;3.13;;;2.50;99.90;;;;;;5029330;28;20045;-61
2022/01/12 06:57:43;;;;;;;23.95;2.63;;;2.50;99.90;;;;;;5027860;28;20033;-61
2022/01/12 07:00:09;;;;;;;35.97;3.20;;;2.60;99.90;;;;;;5023663;28;20443;-61
2022/01/12 07:02:35;;;;;;;48.13;3.00;;;2.60;99.90;;;;;;5016979;28;20487;-61
2022/01/12 07:05:00;;;;;;;63.85;3.60;;;2.60;99.90;;;;;;5020164;28;20401;-61
2022/01/12 07:07:26;;;;;;;107.90;4.40;;;2.50;99.90;;;;;;5026606;28;20395;-61
2022/01/12 07:09:51;;;;;;;85.53;3.72;;;2.60;99.90;;;;;;5018599;28;20056;-60
2022/01/12 07:12:17;;;;;;;36.20;2.72;;;2.50;99.90;;;;;;5011632;28;20135;-60
2022/01/12 07:14:43;;;;;;;28.75;2.58;;;2.60;99.90;;;;;;5007642;28;20132;-60
2022/01/12 07:17:10;;;;;;;73.90;3.50;;;2.60;99.90;;;;;;5010444;28;20049;-60
2022/01/12 07:19:36;;;;;;;52.05;2.78;;;2.60;99.90;;;;;;5017196;28;20072;-60
2022/01/12 07:22:02;;;;;;;74.75;3.75;;;2.60;99.90;;;;;;5010714;28;20053;-60
2022/01/12 07:24:28;;;;;;;52.83;3.00;;;2.60;99.90;;;;;;5025817;28;20048;-60
2022/01/12 07:26:53;;;;;;;46.97;2.60;;;2.50;99.90;;;;;;5028173;28;20046;-60
2022/01/12 07:29:19;;;;;;;38.47;2.80;;;2.50;99.90;;;;;;5010897;28;20148;-60
2022/01/12 07:31:46;;;;;;;21.77;2.03;;;2.50;99.90;;;;;;5028351;28;20063;-60
2022/01/12 07:34:14;;;;;;;28.00;2.42;;;2.60;99.90;;;;;;5012480;28;20798;-60
2022/01/12 07:36:40;;;;;;;31.23;3.00;;;2.60;99.90;;;;;;5009479;28;20161;-60
2022/01/12 07:39:06;;;;;;;16.38;2.67;;;2.60;99.90;;;;;;5020266;28;20034;-60
2022/01/12 07:41:31;;;;;;;25.90;2.22;;;2.60;99.90;;;;;;5021167;28;20061;-60
2022/01/12 07:43:57;;;;;;;33.67;2.55;;;2.60;99.90;;;;;;5027095;28;20048;-60
2022/01/12 07:46:22;;;;;;;31.10;2.63;;;2.50;99.90;;;;;;5027972;28;20496;-61
2022/01/12 07:48:48;;;;;;;48.25;3.33;;;2.40;99.90;;;;;;5026789;28;20069;-60
2022/01/12 07:51:14;;;;;;;58.17;3.92;;;2.40;99.90;;;;;;5021704;28;20133;-60
2022/01/12 07:53:39;;;;;;;37.00;2.85;;;2.40;99.90;;;;;;5012075;28;20069;-60
2022/01/12 07:56:06;;;;;;;35.22;3.58;;;2.30;99.90;;;;;;5016670;28;20049;-60
2022/01/12 07:58:31;;;;;;;40.92;3.53;;;2.30;99.90;;;;;;4991706;28;20056;-60
2022/01/12 08:00:57;;;;;;;52.33;4.05;;;2.20;99.90;;;;;;5017547;28;20380;-60
2022/01/12 08:03:22;;;;;;;38.83;2.80;;;2.20;99.90;;;;;;5007749;28;20093;-60
2022/01/12 08:05:49;;;;;;;43.80;3.42;;;2.30;99.90;;;;;;5009129;28;20125;-60
2022/01/12 08:08:15;;;;;;;73.40;4.35;;;2.30;99.90;;;;;;5009014;28;20041;-61
2022/01/12 08:10:41;;;;;;;79.03;4.85;;;2.20;99.90;;;;;;5021080;28;20052;-61
2022/01/12 08:13:07;;;;;;;69.85;4.75;;;2.20;99.90;;;;;;5025938;28;20045;-61
2022/01/12 08:15:32;;;;;;;66.55;4.82;;;2.30;99.90;;;;;;5024014;28;20174;-61
2022/01/12 08:17:58;;;;;;;121.60;6.43;;;2.40;99.90;;;;;;5009386;28;20045;-60
2022/01/12 08:20:27;;;;;;;133.93;5.95;;;2.50;99.90;;;;;;5008908;28;20088;-61
2022/01/12 08:22:52;;;;;;;46.30;4.63;;;2.40;99.90;;;;;;5007578;28;20514;-60
2022/01/12 08:25:18;;;;;;;57.70;4.03;;;2.50;99.90;;;;;;5017088;28;20068;-60
2022/01/12 08:27:44;;;;;;;133.20;5.85;;;2.70;99.90;;;;;;5017471;28;20567;-61
2022/01/12 08:30:17;;;;;;;90.47;4.70;;;2.60;99.90;;;;;;5018455;28;20046;-60
2022/01/12 08:32:47;;;;;;;73.47;4.13;;;2.60;99.90;;;;;;5017399;28;20045;-60
2022/01/12 08:35:14;;;;;;;71.00;3.90;;;2.60;99.90;;;;;;5020143;28;20077;-60
2022/01/12 08:37:40;;;;;;;63.55;4.18;;;2.50;99.90;;;;;;5014708;28;20045;-60
2022/01/12 08:40:07;;;;;;;50.22;3.63;;;2.60;99.90;;;;;;4999183;28;20061;-60
2022/01/12 08:42:33;;;;;;;36.30;3.45;;;2.60;99.90;;;;;;5013950;28;20049;-61
2022/01/12 08:44:59;;;;;;;56.72;4.50;;;2.70;99.90;;;;;;5018109;28;20037;-60
2022/01/12 08:47:26;;;;;;;116.22;5.63;;;2.60;99.90;;;;;;5018623;28;20052;-60
2022/01/12 08:49:52;;;;;;;83.28;4.93;;;2.60;99.90;;;;;;5015618;28;20040;-60
2022/01/12 08:52:17;;;;;;;35.00;3.20;;;2.50;99.90;;;;;;5024153;28;20037;-60
2022/01/12 08:54:43;;;;;;;34.92;3.65;;;2.70;99.90;;;;;;5021882;28;20044;-61
2022/01/12 08:57:09;;;;;;;32.50;3.65;;;2.70;99.90;;;;;;5012950;28;20048;-60
2022/01/12 08:59:35;;;;;;;76.55;4.63;;;2.80;99.90;;;;;;5021617;28;20041;-60
2022/01/12 09:02:01;;;;;;;68.20;5.15;;;2.70;99.90;;;;;;5017008;28;20069;-60
2022/01/12 09:04:27;;;;;;;81.22;4.85;;;2.80;99.90;;;;;;5012074;28;20041;-60
2022/01/12 09:06:54;;;;;;;81.63;5.47;;;2.70;99.90;;;;;;5025271;28;20042;-61
2022/01/12 09:09:19;;;;;;;78.32;5.15;;;2.70;99.90;;;;;;5025464;28;20497;-60
2022/01/12 09:11:45;;;;;;;49.38;4.47;;;2.80;99.90;;;;;;5011323;28;20183;-60
2022/01/12 09:14:11;;;;;;;61.65;4.35;;;2.80;99.90;;;;;;5011375;28;20037;-60
2022/01/12 09:16:37;;;;;;;30.05;4.30;;;2.90;99.90;;;;;;5011482;28;20057;-60
2022/01/12 09:19:03;;;;;;;23.40;4.35;;;3.00;99.90;;;;;;5017239;28;20045;-60
2022/01/12 09:21:28;;;;;;;58.00;5.88;;;3.10;99.90;;;;;;5011607;28;20049;-60
2022/01/12 09:23:54;;;;;;;20.17;4.35;;;3.10;99.90;;;;;;5022038;28;20037;-60
2022/01/12 09:26:20;;;;;;;37.45;5.00;;;3.20;99.90;;;;;;5020129;28;20215;-61
2022/01/12 09:28:48;;;;;;;58.97;5.63;;;3.20;99.90;;;;;;5014116;28;20064;-60
2022/01/12 09:31:14;;;;;;;40.92;6.18;;;3.20;99.90;;;;;;5011453;28;20053;-60
2022/01/12 09:33:40;;;;;;;59.92;6.32;;;3.30;99.90;;;;;;5013180;28;20045;-60
2022/01/12 09:36:06;;;;;;;25.17;5.35;;;3.20;99.90;;;;;;5028590;28;20041;-60
2022/01/12 09:38:32;;;;;;;32.83;4.38;;;3.30;99.90;;;;;;5026840;28;20041;-60
2022/01/12 09:40:58;;;;;;;35.47;3.88;;;3.40;99.90;;;;;;5016436;28;20137;-60
2022/01/12 09:43:26;;;;;;;57.33;4.32;;;3.40;99.90;;;;;;5011063;28;20180;-60
2022/01/12 09:45:52;;;;;;;81.00;5.03;;;3.40;99.90;;;;;;5010335;28;20052;-60
2022/01/12 09:48:24;;;;;;;36.30;3.92;;;3.50;99.90;;;;;;5011677;28;20050;-61
2022/01/12 09:50:52;;;;;;;38.50;3.35;;;3.50;99.90;;;;;;5010771;28;20049;-60
2022/01/12 09:53:18;;;;;;;33.90;3.90;;;3.60;99.90;;;;;;5023287;28;20053;-60
2022/01/12 09:55:43;;;;;;;23.45;3.85;;;3.60;99.90;;;;;;5016185;28;20044;-60
2022/01/12 09:58:09;;;;;;;19.95;4.68;;;3.60;99.90;;;;;;5024574;28;20053;-60
2022/01/12 10:00:35;;;;;;;5.85;2.47;;;3.70;99.90;;;;;;5027359;28;20067;-60
2022/01/12 10:03:11;;;;;;;39.33;3.92;;;3.70;99.90;;;;;;5029460;28;20042;-60
2022/01/12 10:05:37;;;;;;;35.90;3.88;;;3.70;99.90;;;;;;5027196;28;20045;-60
2022/01/12 10:08:14;;;;;;;14.23;2.70;;;3.70;99.90;;;;;;5016399;28;20053;-60
2022/01/12 10:10:41;;;;;;;12.63;3.80;;;3.80;99.90;;;;;;5010448;28;20124;-60
2022/01/12 10:13:22;;;;;;;14.73;3.17;;;3.70;99.90;;;;;;5010268;28;20100;-60
2022/01/12 10:15:49;;;;;;;16.10;3.35;;;3.80;99.90;;;;;;5010028;28;20046;-60
2022/01/12 10:18:14;;;;;;;12.85;3.35;;;3.70;99.90;;;;;;5023735;28;20099;-60
2022/01/12 10:20:44;;;;;;;15.70;2.63;;;3.80;99.90;;;;;;5029336;28;20053;-60
2022/01/12 10:23:13;;;;;;;29.45;3.50;;;3.80;99.90;;;;;;5029245;28;20038;-60
2022/01/12 10:25:42;;;;;;;18.55;4.35;;;3.80;99.90;;;;;;5027709;28;20095;-61
2022/01/12 10:28:20;;;;;;;36.78;3.10;;;3.90;99.90;;;;;;5011424;28;20809;-60
2022/01/12 10:31:00;;;;;;;23.02;3.33;;;4.00;99.90;;;;;;5012953;28;20054;-60
2022/01/12 10:33:33;;;;;;;61.58;5.32;;;4.10;99.90;;;;;;5018082;28;20172;-60
2022/01/12 10:36:02;;;;;;;47.40;4.32;;;4.10;99.90;;;;;;5028167;28;20578;-60
2022/01/12 10:38:28;;;;;;;18.90;3.45;;;4.20;99.90;;;;;;5009113;28;20049;-60
2022/01/12 10:41:02;;;;;;;16.65;3.63;;;4.40;99.90;;;;;;5025777;28;20050;-60
2022/01/12 10:43:40;;;;;;;11.90;3.85;;;4.40;99.90;;;;;;5021917;28;20091;-60
2022/01/12 10:46:16;;;;;;;14.38;4.07;;;4.40;99.90;;;;;;5018502;28;20120;-61
2022/01/12 10:48:43;;;;;;;14.05;4.88;;;4.50;99.90;;;;;;5023999;28;20037;-61
2022/01/12 10:51:10;;;;;;;9.20;4.13;;;4.60;99.90;;;;;;5025707;28;20048;-61
2022/01/12 10:53:36;;;;;;;8.00;3.65;;;4.70;99.90;;;;;;5020512;28;20061;-61
2022/01/12 10:56:14;;;;;;;12.88;3.15;;;4.90;99.90;;;;;;5023424;28;20045;-61
2022/01/12 10:58:47;;;;;;;18.30;4.10;;;5.00;99.90;;;;;;5022192;28;20040;-61
2022/01/12 11:01:15;;;;;;;10.48;4.20;;;5.10;99.90;;;;;;5023676;28;20053;-61
2022/01/12 11:03:41;;;;;;;13.48;3.17;;;5.10;99.90;;;;;;5028277;28;20046;-61
2022/01/12 11:06:09;;;;;;;10.50;3.83;;;5.20;99.90;;;;;;5008298;28;20561;-61
2022/01/12 11:08:36;;;;;;;14.57;3.92;;;5.30;99.90;;;;;;5009666;28;20080;-61
2022/01/12 11:11:03;;;;;;;15.00;3.90;;;5.40;99.90;;;;;;5009175;28;20046;-61
2022/01/12 11:13:30;;;;;;;15.55;5.20;;;5.50;99.90;;;;;;5022163;28;20041;-61
2022/01/12 11:15:59;;;;;;;16.17;5.25;;;5.60;99.90;;;;;;5028982;28;20144;-61
2022/01/12 11:18:31;;;;;;;17.17;3.58;;;5.70;99.90;;;;;;5029344;28;20083;-61
2022/01/12 11:21:03;;;;;;;40.00;7.40;;;5.80;99.90;;;;;;5026371;28;20045;-61
2022/01/12 11:23:38;;;;;;;15.70;4.47;;;5.90;99.90;;;;;;5019660;28;20070;-61
2022/01/12 11:26:25;;;;;;;18.55;5.03;;;5.90;99.90;;;;;;5018546;28;20311;-60
2022/01/12 11:28:52;;;;;;;20.65;6.32;;;6.00;99.90;;;;;;5016360;28;20069;-61
2022/01/12 11:31:24;;;;;;;12.07;4.15;;;6.10;99.90;;;;;;5008877;28;20673;-61
2022/01/12 11:33:50;;;;;;;19.63;4.88;;;6.20;99.90;;;;;;5019229;28;20044;-61
2022/01/12 11:36:18;;;;;;;19.98;5.28;;;6.30;99.90;;;;;;5014892;28;20042;-61
2022/01/12 11:38:47;;;;;;;21.58;5.85;;;6.40;99.90;;;;;;5020059;28;20064;-61
2022/01/12 11:41:28;;;;;;;23.25;5.38;;;6.50;99.90;;;;;;5013901;28;20134;-61
2022/01/12 11:44:20;;;;;;;25.63;5.18;;;6.60;99.90;;;;;;5013641;28;20844;-61
2022/01/12 11:46:54;;;;;;;23.23;6.18;;;6.70;99.90;;;;;;5015149;28;20128;-61
2022/01/12 11:49:39;;;;;;;20.95;5.20;;;6.90;99.90;;;;;;5020963;28;20100;-61
2022/01/12 11:52:23;;;;;;;30.42;6.97;;;7.00;99.90;;;;;;5006634;28;20103;-61
2022/01/12 11:54:52;;;;;;;15.15;4.70;;;7.20;99.90;;;;;;5028049;28;20052;-61
2022/01/12 11:57:32;;;;;;;20.98;5.22;;;7.50;99.90;;;;;;5012045;28;20042;-61
2022/01/12 12:00:07;;;;;;;18.65;5.85;;;7.60;99.90;;;;;;5027753;28;20136;-61
2022/01/12 12:02:34;;;;;;;23.83;6.18;;;7.80;99.90;;;;;;5028225;28;20045;-61
2022/01/12 12:05:02;;;;;;;27.75;6.13;;;8.00;99.90;;;;;;5010223;28;20128;-61
2022/01/12 12:07:28;;;;;;;19.63;5.32;;;8.20;99.90;;;;;;5026523;28;20056;-61
2022/01/12 12:09:59;;;;;;;23.90;5.60;;;8.30;99.90;;;;;;5027046;28;20049;-61
2022/01/12 12:12:33;;;;;;;20.77;5.22;;;8.40;99.90;;;;;;5026960;28;20599;-61
2022/01/12 12:15:05;;;;;;;27.40;5.75;;;8.60;99.90;;;;;;5025744;28;20045;-60
2022/01/12 12:17:32;;;;;;;23.00;5.35;;;8.70;99.90;;;;;;5001650;28;20045;-61
2022/01/12 12:19:59;;;;;;;20.83;5.30;;;9.00;99.90;;;;;;5012383;28;20417;-61
2022/01/12 12:22:28;;;;;;;23.98;4.65;;;9.20;99.90;;;;;;5007332;28;20038;-61
2022/01/12 12:25:04;;;;;;;19.90;4.18;;;9.20;99.90;;;;;;5018416;28;20042;-61
2022/01/12 12:27:31;;;;;;;16.88;5.57;;;9.30;99.90;;;;;;5021017;28;20049;-61
2022/01/12 12:29:57;;;;;;;29.10;5.95;;;9.50;99.90;;;;;;5008115;28;20065;-62
2022/01/12 12:32:53;;;;;;;22.08;5.57;;;9.50;99.90;;;;;;5013873;28;20165;-61
2022/01/12 12:35:24;;;;;;;25.75;6.70;;;9.60;99.90;;;;;;5017271;28;20057;-61
2022/01/12 12:37:56;;;;;;;22.08;6.13;;;9.70;99.90;;;;;;5013575;28;20131;-61
2022/01/12 12:40:28;;;;;;;22.90;5.78;;;9.70;99.90;;;;;;5012332;28;20045;-61
2022/01/12 12:43:20;;;;;;;21.08;6.10;;;9.80;99.90;;;;;;5015917;28;20034;-61
2022/01/12 12:46:09;;;;;;;24.90;5.65;;;9.70;99.90;;;;;;5028459;28;20056;-61
2022/01/12 12:48:36;;;;;;;32.65;6.03;;;9.70;99.90;;;;;;5031500;28;20041;-61
2022/01/12 12:51:08;;;;;;;29.10;6.68;;;9.70;99.90;;;;;;5030131;28;20045;-61
2022/01/12 12:53:57;;;;;;;33.65;5.88;;;9.60;99.90;;;;;;5027149;28;20069;-61
2022/01/12 12:56:27;;;;;;;30.35;5.85;;;9.70;99.90;;;;;;5013842;28;20124;-61
2022/01/12 12:58:56;;;;;;;23.15;4.13;;;9.80;99.90;;;;;;5005305;28;20095;-61
2022/01/12 13:01:25;;;;;;;23.65;4.75;;;9.80;99.90;;;;;;5014685;28;20132;-61
2022/01/12 13:03:59;;;;;;;28.23;5.30;;;10.00;99.90;;;;;;5011857;28;20083;-61
2022/01/12 13:06:28;;;;;;;27.80;5.68;;;10.00;99.90;;;;;;5011428;28;20045;-61
2022/01/12 13:08:56;;;;;;;26.80;5.50;;;10.10;99.90;;;;;;5024118;28;20481;-61
2022/01/12 13:11:31;;;;;;;21.50;5.20;;;10.30;99.90;;;;;;5030834;28;20574;-61
2022/01/12 13:13:59;;;;;;;21.80;4.85;;;10.50;99.90;;;;;;5007854;28;20049;-61
2022/01/12 13:16:27;;;;;;;21.00;4.78;;;10.70;99.90;;;;;;5025437;28;20103;-61
2022/01/12 13:19:03;;;;;;;23.55;5.15;;;10.90;99.90;;;;;;5030220;28;20481;-61
2022/01/12 13:21:30;;;;;;;29.17;6.50;;;11.10;99.90;;;;;;5031446;28;20059;-61
2022/01/12 13:23:58;;;;;;;21.38;5.78;;;11.30;99.90;;;;;;5029447;28;20041;-61
2022/01/12 13:26:31;;;;;;;16.20;4.55;;;11.40;99.90;;;;;;5023501;28;20162;-61
2022/01/12 13:28:57;;;;;;;17.25;5.57;;;11.70;99.90;;;;;;5023234;28;20072;-62
2022/01/12 13:31:23;;;;;;;15.88;4.70;;;11.80;99.90;;;;;;5031557;28;20053;-62
2022/01/12 13:33:51;;;;;;;19.85;5.18;;;11.90;99.90;;;;;;5029011;28;20072;-62
2022/01/12 13:36:29;;;;;;;16.33;4.53;;;11.90;99.90;;;;;;5030714;28;20053;-62
2022/01/12 13:38:56;;;;;;;30.30;5.93;;;11.90;99.90;;;;;;5029537;28;20049;-62
2022/01/12 13:41:25;;;;;;;21.15;4.40;;;12.00;99.90;;;;;;5027589;28;20061;-62
2022/01/12 13:43:58;;;;;;;15.65;3.25;;;11.90;99.90;;;;;;5011672;28;20528;-62
2022/01/12 13:46:53;;;;;;;23.38;5.25;;;12.00;99.90;;;;;;5018196;28;20050;-62
2022/01/12 13:52:06;;;;;;;16.42;4.47;;;11.40;99.90;;;;;;5011202;28;20412;-62
2022/01/12 13:54:43;;;;;;;22.17;4.15;;;11.00;99.90;;;;;;5013603;28;20041;-62
2022/01/12 13:57:14;;;;;;;30.08;5.45;;;10.80;99.90;;;;;;4999760;28;20512;-62
2022/01/12 13:59:45;;;;;;;16.88;3.67;;;10.50;99.90;;;;;;5019098;28;20099;-62
2022/01/12 14:02:16;;;;;;;16.65;3.72;;;10.30;99.90;;;;;;5028848;28;20037;-62
2022/01/12 14:04:46;;;;;;;21.95;3.92;;;10.20;99.90;;;;;;5018189;28;20176;-62